createdAt,value
2022-12-22T00:02:31.426Z,-2.58
2022-12-22T00:05:18.479Z,-2.23
2022-12-22T00:08:05.692Z,-2.26
2022-12-22T00:10:52.798Z,-2.19
2022-12-22T00:13:40.181Z,-2.18
2022-12-22T00:16:29.544Z,-2.23
2022-12-22T00:19:16.513Z,-2.21
2022-12-22T00:22:03.897Z,-2.18
2022-12-22T00:24:51.083Z,-2.26
2022-12-22T00:27:45.948Z,-2.31
2022-12-22T00:30:34.106Z,-2.25
2022-12-22T00:33:24.239Z,-2.83
2022-12-22T00:36:11.224Z,-2.43
2022-12-22T00:38:58.250Z,-2.33
2022-12-22T00:41:45.252Z,-2.31
2022-12-22T00:44:32.414Z,-2.40
2022-12-22T00:47:19.441Z,-2.28
2022-12-22T00:50:08.810Z,-2.32
2022-12-22T00:52:56.191Z,-2.30
2022-12-22T00:55:49.161Z,-2.39
2022-12-22T00:58:38.449Z,-2.50
2022-12-22T01:01:25.884Z,-2.41
2022-12-22T01:04:13.246Z,-2.35
2022-12-22T01:07:01.975Z,-2.38
2022-12-22T01:09:49.243Z,-2.40
2022-12-22T01:12:39.800Z,-2.65
2022-12-22T01:15:31.036Z,-2.51
2022-12-22T01:18:18.392Z,-2.46
2022-12-22T01:21:05.847Z,-2.82
2022-12-22T01:23:54.576Z,-2.44
2022-12-22T01:26:42.031Z,-2.40
2022-12-22T01:29:29.711Z,-2.51
2022-12-22T01:32:16.935Z,-2.51
2022-12-22T01:35:03.886Z,-2.47
2022-12-22T01:37:51.285Z,-2.59
2022-12-22T01:40:43.812Z,-2.63
2022-12-22T01:43:38.213Z,-2.86
2022-12-22T01:46:39.777Z,-2.68
2022-12-22T01:49:30.390Z,-2.58
2022-12-22T01:52:17.832Z,-2.59
2022-12-22T01:55:06.251Z,-2.63
2022-12-22T01:57:55.848Z,-2.59
2022-12-22T02:00:43.281Z,-2.54
2022-12-22T02:03:35.048Z,-2.55
2022-12-22T02:06:34.028Z,-2.54
2022-12-22T02:09:36.054Z,-2.54
2022-12-22T02:12:30.539Z,-2.46
2022-12-22T02:15:26.021Z,-2.53
2022-12-22T02:18:21.275Z,-2.71
2022-12-22T02:21:12.538Z,-2.75
2022-12-22T02:24:25.938Z,-2.75
2022-12-22T02:27:16.912Z,-2.67
2022-12-22T02:30:10.327Z,-2.70
2022-12-22T02:33:05.387Z,-2.95
2022-12-22T02:36:04.350Z,-2.67
2022-12-22T02:39:03.429Z,-2.77
2022-12-22T02:41:57.952Z,-2.73
2022-12-22T02:45:00.703Z,-2.84
2022-12-22T02:47:56.220Z,-2.84
2022-12-22T02:50:49.787Z,-2.94
2022-12-22T02:53:39.147Z,-2.88
2022-12-22T02:56:28.914Z,-2.78
2022-12-22T02:59:16.195Z,-2.62
2022-12-22T03:02:05.575Z,-2.86
2022-12-22T03:04:53.070Z,-2.82
2022-12-22T03:07:40.106Z,-2.73
2022-12-22T03:10:28.853Z,-2.88
2022-12-22T03:13:17.714Z,-2.80
2022-12-22T03:16:06.742Z,-2.59
2022-12-22T03:18:55.663Z,-2.70
2022-12-22T03:21:42.797Z,-2.72
2022-12-22T03:24:29.916Z,-2.60
2022-12-22T03:27:00.191Z,-2.50
2022-12-22T03:29:30.103Z,-2.62
2022-12-22T03:31:59.945Z,-2.82
2022-12-22T03:34:31.282Z,-2.87
2022-12-22T03:37:01.258Z,-2.81
2022-12-22T03:39:31.101Z,-2.78
2022-12-22T03:42:18.817Z,-2.78
2022-12-22T03:45:06.048Z,-2.74
2022-12-22T03:47:35.950Z,-2.85
2022-12-22T03:50:08.217Z,-2.90
2022-12-22T03:52:37.995Z,-2.81
2022-12-22T03:55:08.600Z,-2.87
2022-12-22T03:57:38.473Z,-2.92
2022-12-22T04:00:09.778Z,-2.90
2022-12-22T04:02:39.810Z,-2.96
2022-12-22T04:05:11.378Z,-2.90
2022-12-22T04:07:41.192Z,-2.84
2022-12-22T04:10:29.237Z,-2.90
2022-12-22T04:12:59.974Z,-3.07
2022-12-22T04:15:32.567Z,-3.02
2022-12-22T04:18:02.651Z,-2.83
2022-12-22T04:20:34.414Z,-2.68
2022-12-22T04:23:04.677Z,-2.80
2022-12-22T04:25:34.486Z,-2.94
2022-12-22T04:28:04.397Z,-3.05
2022-12-22T04:30:34.107Z,-3.16
2022-12-22T04:33:03.821Z,-2.98
2022-12-22T04:35:34.922Z,-3.06
2022-12-22T04:38:04.734Z,-3.04
2022-12-22T04:40:34.724Z,-3.22
2022-12-22T04:43:04.813Z,-3.18
2022-12-22T04:45:34.546Z,-3.18
2022-12-22T04:48:04.507Z,-3.14
2022-12-22T04:50:35.617Z,-2.98
2022-12-22T04:53:05.515Z,-2.98
2022-12-22T04:55:35.558Z,-3.09
2022-12-22T04:58:05.291Z,-3.02
2022-12-22T05:00:35.312Z,-3.00
2022-12-22T05:03:05.202Z,-3.14
2022-12-22T05:05:36.959Z,-3.09
2022-12-22T05:08:07.690Z,-3.09
2022-12-22T05:10:37.440Z,-3.14
2022-12-22T05:13:08.088Z,-3.46
2022-12-22T05:15:38.253Z,-3.08
2022-12-22T05:18:08.165Z,-3.15
2022-12-22T05:20:39.362Z,-3.26
2022-12-22T05:23:09.686Z,-3.23
2022-12-22T05:25:39.404Z,-3.16
2022-12-22T05:28:09.167Z,-3.20
2022-12-22T05:30:39.025Z,-3.65
2022-12-22T05:33:09.227Z,-3.25
2022-12-22T05:35:40.458Z,-3.37
2022-12-22T05:38:10.639Z,-3.54
2022-12-22T05:40:40.612Z,-3.43
2022-12-22T05:43:10.936Z,-3.35
2022-12-22T05:45:40.918Z,-3.37
2022-12-22T05:48:11.234Z,-3.37
2022-12-22T05:50:42.384Z,-3.29
2022-12-22T05:53:12.986Z,-3.42
2022-12-22T05:55:42.901Z,-3.33
2022-12-22T05:58:12.899Z,-3.22
2022-12-22T06:00:42.660Z,-3.20
2022-12-22T06:03:12.566Z,-3.34
2022-12-22T06:05:43.806Z,-3.30
2022-12-22T06:08:13.792Z,-3.25
2022-12-22T06:10:43.919Z,-3.29
2022-12-22T06:13:14.484Z,-3.31
2022-12-22T06:15:45.007Z,-3.07
2022-12-22T06:18:18.312Z,-2.82
2022-12-22T06:20:51.941Z,-2.95
2022-12-22T06:23:21.611Z,-3.03
2022-12-22T06:25:57.860Z,-2.95
2022-12-22T06:28:29.336Z,-3.09
2022-12-22T06:30:59.402Z,-2.97
2022-12-22T06:33:29.275Z,-3.03
2022-12-22T06:36:05.016Z,-2.87
2022-12-22T06:38:35.432Z,-2.84
2022-12-22T06:41:05.531Z,-2.84
2022-12-22T06:43:34.502Z,-2.82
2022-12-22T06:46:04.602Z,-2.77
2022-12-22T06:48:35.727Z,-2.71
2022-12-22T06:51:07.302Z,-2.84
2022-12-22T06:53:37.151Z,-2.70
2022-12-22T06:56:07.877Z,-2.76
2022-12-22T06:58:37.719Z,-2.60
2022-12-22T07:01:07.563Z,-2.51
2022-12-22T07:03:37.384Z,-2.70
2022-12-22T07:06:09.104Z,-2.56
2022-12-22T07:08:38.799Z,-2.49
2022-12-22T07:11:08.578Z,-2.42
2022-12-22T07:13:39.162Z,-2.48
2022-12-22T07:16:11.004Z,-2.36
2022-12-22T07:18:43.429Z,-2.22
2022-12-22T07:21:15.725Z,-2.15
2022-12-22T07:23:45.692Z,-2.02
2022-12-22T07:26:15.907Z,-2.02
2022-12-22T07:28:45.729Z,-2.05
2022-12-22T07:31:18.823Z,-2.06
2022-12-22T07:33:48.678Z,-1.97
2022-12-22T07:36:21.223Z,-1.95
2022-12-22T07:38:52.977Z,-1.83
2022-12-22T07:41:40.561Z,-1.77
2022-12-22T07:44:10.367Z,-1.41
2022-12-22T07:46:41.079Z,-1.28
2022-12-22T07:49:32.479Z,-1.17
2022-12-22T07:52:03.692Z,-1.02
2022-12-22T07:54:41.112Z,-0.87
2022-12-22T07:57:11.661Z,-0.71
2022-12-22T07:59:41.609Z,-0.54
2022-12-22T08:02:12.743Z,-0.40
2022-12-22T08:04:42.724Z,-0.29
2022-12-22T08:07:13.858Z,-0.30
2022-12-22T08:09:43.603Z,-0.10
2022-12-22T08:12:13.927Z,-0.02
2022-12-22T08:14:45.953Z,0.05
2022-12-22T08:17:16.720Z,0.26
2022-12-22T08:19:48.681Z,0.35
2022-12-22T08:22:19.749Z,0.39
2022-12-22T08:24:49.629Z,0.34
2022-12-22T08:27:26.140Z,0.49
2022-12-22T08:29:59.085Z,0.25
2022-12-22T08:32:29.142Z,0.71
2022-12-22T08:34:59.180Z,0.79
2022-12-22T08:37:32.666Z,0.88
2022-12-22T08:40:06.008Z,0.91
2022-12-22T08:42:35.986Z,1.09
2022-12-22T08:45:09.398Z,1.16
2022-12-22T08:47:39.407Z,1.34
2022-12-22T08:50:10.551Z,1.42
2022-12-22T08:52:41.828Z,1.47
2022-12-22T08:55:11.871Z,1.60
2022-12-22T08:57:41.970Z,1.68
2022-12-22T09:00:13.511Z,1.72
2022-12-22T09:02:43.482Z,1.79
2022-12-22T09:05:13.341Z,1.83
2022-12-22T09:07:47.187Z,1.86
2022-12-22T09:10:16.916Z,1.87
2022-12-22T09:12:48.135Z,1.91
2022-12-22T09:15:18.959Z,1.98
2022-12-22T09:17:49.160Z,1.99
2022-12-22T09:20:19.319Z,2.07
2022-12-22T09:22:50.572Z,2.17
2022-12-22T09:25:20.277Z,2.25
2022-12-22T09:27:50.177Z,2.31
2022-12-22T09:30:20.461Z,2.29
2022-12-22T09:32:50.259Z,2.39
2022-12-22T09:35:20.212Z,2.48
2022-12-22T09:37:51.486Z,2.15
2022-12-22T09:40:22.374Z,2.58
2022-12-22T09:42:52.206Z,2.61
2022-12-22T09:45:21.966Z,2.69
2022-12-22T09:47:54.690Z,2.76
2022-12-22T09:50:26.582Z,2.79
2022-12-22T09:53:01.810Z,2.86
2022-12-22T09:55:40.803Z,2.65
2022-12-22T09:58:25.983Z,3.01
2022-12-22T10:01:07.641Z,3.01
2022-12-22T10:03:46.819Z,3.07
2022-12-22T10:06:21.813Z,3.11
2022-12-22T10:08:55.184Z,3.19
2022-12-22T10:11:25.819Z,3.26
2022-12-22T10:13:56.118Z,3.30
2022-12-22T10:16:29.156Z,3.41
2022-12-22T10:19:02.143Z,3.41
2022-12-22T10:21:32.262Z,3.49
2022-12-22T10:24:16.576Z,3.56
2022-12-22T10:26:46.647Z,3.56
2022-12-22T10:29:19.021Z,3.63
2022-12-22T10:32:01.620Z,3.68
2022-12-22T10:34:32.100Z,3.74
2022-12-22T10:37:05.116Z,3.78
2022-12-22T10:39:40.584Z,3.78
2022-12-22T10:42:14.185Z,3.81
2022-12-22T10:44:49.179Z,3.85
2022-12-22T10:47:24.140Z,3.56
2022-12-22T10:52:32.288Z,3.97
2022-12-22T10:55:21.843Z,4.00
2022-12-22T10:57:51.805Z,4.02
2022-12-22T11:00:27.872Z,4.13
2022-12-22T11:02:59.414Z,4.20
2022-12-22T11:05:30.780Z,4.15
2022-12-22T11:08:05.509Z,4.25
2022-12-22T11:10:42.834Z,4.26
2022-12-22T11:13:37.317Z,4.32
2022-12-22T11:16:12.157Z,4.34
2022-12-22T11:18:48.903Z,4.36
2022-12-22T11:21:24.536Z,4.41
2022-12-22T11:24:06.779Z,4.38
2022-12-22T11:26:46.709Z,4.39
2022-12-22T11:29:30.196Z,4.44
2022-12-22T11:32:16.629Z,4.42
2022-12-22T11:34:57.875Z,4.51
2022-12-22T11:37:38.255Z,4.14
2022-12-22T11:40:18.048Z,4.45
2022-12-22T11:43:03.082Z,4.38
2022-12-22T11:45:43.587Z,4.44
2022-12-22T11:48:41.510Z,4.57
2022-12-22T11:51:27.133Z,4.49
2022-12-22T11:54:20.834Z,4.45
2022-12-22T11:56:59.020Z,4.39
2022-12-22T11:59:45.663Z,4.49
2022-12-22T12:02:45.665Z,4.42
2022-12-22T12:05:46.015Z,4.53
2022-12-22T12:08:26.822Z,4.50
2022-12-22T12:11:04.209Z,4.47
2022-12-22T12:13:43.589Z,4.46
2022-12-22T12:16:24.407Z,4.48
2022-12-22T12:19:08.726Z,4.45
2022-12-22T12:21:47.147Z,4.51
2022-12-22T12:24:31.971Z,4.44
2022-12-22T12:27:10.581Z,4.47
2022-12-22T12:30:13.375Z,4.21
2022-12-22T12:32:46.553Z,4.35
2022-12-22T12:35:45.513Z,4.36
2022-12-22T12:38:56.765Z,4.43
2022-12-22T12:41:21.105Z,4.40
2022-12-22T12:43:55.001Z,4.41
2022-12-22T12:46:48.386Z,4.35
2022-12-22T12:49:57.816Z,4.38
2022-12-22T12:53:16.652Z,4.27
2022-12-22T12:56:06.058Z,4.28
2022-12-22T12:58:57.966Z,4.22
2022-12-22T13:01:57.079Z,4.15
2022-12-22T13:05:11.701Z,4.10
2022-12-22T13:08:14.336Z,4.03
2022-12-22T13:12:01.158Z,4.11
2022-12-22T13:14:58.953Z,3.93
2022-12-22T13:17:41.539Z,3.87
2022-12-22T13:20:16.003Z,3.93
2022-12-22T13:22:47.121Z,4.07
2022-12-22T13:25:19.413Z,4.04
2022-12-22T13:27:50.047Z,4.01
2022-12-22T13:30:22.417Z,3.92
2022-12-22T13:32:53.012Z,3.88
2022-12-22T13:35:34.735Z,3.60
2022-12-22T13:38:06.053Z,3.84
2022-12-22T13:40:44.478Z,3.64
2022-12-22T13:43:16.285Z,3.85
2022-12-22T13:45:48.491Z,3.80
2022-12-22T13:48:21.127Z,3.76
2022-12-22T13:50:53.805Z,3.78
2022-12-22T13:56:24.954Z,3.91
2022-12-22T13:58:59.212Z,3.90
2022-12-22T14:01:31.615Z,3.90
2022-12-22T14:04:07.707Z,3.93
2022-12-22T14:06:39.599Z,3.89
2022-12-22T14:09:14.271Z,3.98
2022-12-22T14:11:52.572Z,3.96
2022-12-22T14:14:26.819Z,3.94
2022-12-22T14:17:00.504Z,3.81
2022-12-22T14:19:34.340Z,3.56
2022-12-22T14:22:08.364Z,3.78
2022-12-22T14:24:44.264Z,3.78
2022-12-22T14:27:24.915Z,3.71
2022-12-22T14:29:55.174Z,3.68
2022-12-22T14:32:37.837Z,3.62
2022-12-22T14:35:25.727Z,3.53
2022-12-22T14:37:57.608Z,3.49
2022-12-22T14:40:32.962Z,3.49
2022-12-22T14:43:08.168Z,3.43
2022-12-22T14:45:38.022Z,3.44
2022-12-22T14:48:10.782Z,3.35
2022-12-22T14:50:49.724Z,3.31
2022-12-22T14:53:25.487Z,3.28
2022-12-22T14:55:55.647Z,3.27
2022-12-22T14:58:32.392Z,3.25
2022-12-22T15:01:18.230Z,3.22
2022-12-22T15:04:00.676Z,3.07
2022-12-22T15:06:37.681Z,3.16
2022-12-22T15:09:12.115Z,3.13
2022-12-22T15:11:46.311Z,2.98
2022-12-22T15:14:20.238Z,3.06
2022-12-22T15:16:50.800Z,3.04
2022-12-22T15:19:22.654Z,2.98
2022-12-22T15:21:57.119Z,2.95
2022-12-22T15:24:27.438Z,2.92
2022-12-22T15:26:57.485Z,2.87
2022-12-22T15:29:28.941Z,2.84
2022-12-22T15:31:59.204Z,2.79
2022-12-22T15:34:30.543Z,2.70
2022-12-22T15:37:00.435Z,2.70
2022-12-22T15:39:30.237Z,2.68
2022-12-22T15:42:00.137Z,2.74
2022-12-22T15:44:38.309Z,2.63
2022-12-22T15:47:11.916Z,2.64
2022-12-22T15:49:41.700Z,2.64
2022-12-22T15:52:13.107Z,2.64
2022-12-22T15:54:43.183Z,2.62
2022-12-22T15:57:14.958Z,2.61
2022-12-22T15:59:46.555Z,2.59
2022-12-22T16:02:16.590Z,2.56
2022-12-22T16:04:46.536Z,2.55
2022-12-22T16:07:16.250Z,2.52
2022-12-22T16:09:48.643Z,2.47
2022-12-22T16:12:20.693Z,2.45
2022-12-22T16:14:57.564Z,2.46
2022-12-22T16:17:29.835Z,2.44
2022-12-22T16:20:00.585Z,2.41
2022-12-22T16:22:34.688Z,2.33
2022-12-22T16:25:07.453Z,2.32
2022-12-22T16:27:37.217Z,2.29
2022-12-22T16:30:16.508Z,2.29
2022-12-22T16:32:46.523Z,2.22
2022-12-22T16:35:18.265Z,2.06
2022-12-22T16:37:49.913Z,2.05
2022-12-22T16:40:20.405Z,2.09
2022-12-22T16:45:45.784Z,2.09
2022-12-22T16:48:20.706Z,2.06
2022-12-22T16:50:50.683Z,2.01
2022-12-22T16:53:20.635Z,1.85
2022-12-22T16:55:50.614Z,1.87
2022-12-22T16:58:21.218Z,1.81
2022-12-22T17:00:53.777Z,1.76
2022-12-22T17:03:25.995Z,1.74
2022-12-22T17:05:59.588Z,1.73
2022-12-22T17:08:31.941Z,1.68
2022-12-22T17:11:10.530Z,1.58
2022-12-22T17:13:41.220Z,1.71
2022-12-22T17:16:19.881Z,1.58
2022-12-22T17:18:50.308Z,1.46
2022-12-22T17:21:21.901Z,1.46
2022-12-22T17:23:54.698Z,1.42
2022-12-22T17:26:26.853Z,1.36
2022-12-22T17:28:56.916Z,1.27
2022-12-22T17:31:28.675Z,1.25
2022-12-22T17:33:58.816Z,1.26
2022-12-22T17:36:33.461Z,0.86
2022-12-22T17:39:05.099Z,1.14
2022-12-22T17:41:34.828Z,1.13
2022-12-22T17:44:04.926Z,1.15
2022-12-22T17:46:36.204Z,1.06
2022-12-22T17:49:06.034Z,1.01
2022-12-22T17:51:35.824Z,0.99
2022-12-22T17:54:06.255Z,1.02
2022-12-22T17:56:36.147Z,0.98
2022-12-22T17:59:05.904Z,1.02
2022-12-22T18:01:39.284Z,0.86
2022-12-22T18:04:09.956Z,0.81
2022-12-22T18:06:42.229Z,0.71
2022-12-22T18:09:19.773Z,0.73
2022-12-22T18:11:51.417Z,0.72
2022-12-22T18:14:22.735Z,0.54
2022-12-22T18:16:54.700Z,0.67
2022-12-22T18:19:24.759Z,0.69
2022-12-22T18:21:54.558Z,0.60
2022-12-22T18:24:24.322Z,0.64
2022-12-22T18:26:54.121Z,0.58
2022-12-22T18:29:23.816Z,0.76
2022-12-22T18:31:56.088Z,0.63
2022-12-22T18:34:25.966Z,0.59
2022-12-22T18:36:55.796Z,0.59
2022-12-22T18:39:25.868Z,0.59
2022-12-22T18:41:56.364Z,0.51
2022-12-22T18:44:26.153Z,0.51
2022-12-22T18:46:57.348Z,0.50
2022-12-22T18:49:27.085Z,0.54
2022-12-22T18:51:56.799Z,0.44
2022-12-22T18:54:32.456Z,0.33
2022-12-22T18:57:02.217Z,0.33
2022-12-22T18:59:32.981Z,0.39
2022-12-22T19:02:14.153Z,0.35
2022-12-22T19:04:44.145Z,0.24
2022-12-22T19:07:16.831Z,0.60
2022-12-22T19:09:47.405Z,0.42
2022-12-22T19:12:23.011Z,0.38
2022-12-22T19:14:59.863Z,0.35
2022-12-22T19:17:31.495Z,0.11
2022-12-22T19:20:01.299Z,0.23
2022-12-22T19:22:31.216Z,0.20
2022-12-22T19:25:01.234Z,0.22
2022-12-22T19:27:32.497Z,0.14
2022-12-22T19:30:04.484Z,0.14
2022-12-22T19:32:42.544Z,0.05
2022-12-22T19:35:15.826Z,-0.05
2022-12-22T19:37:46.191Z,0.06
2022-12-22T19:40:17.261Z,0.15
2022-12-22T19:42:49.548Z,-0.09
2022-12-22T19:45:22.206Z,-0.55
2022-12-22T19:47:54.832Z,0.00
2022-12-22T19:50:26.914Z,-0.04
2022-12-22T19:52:58.766Z,-0.20
2022-12-22T19:55:30.529Z,-0.11
2022-12-22T19:58:01.392Z,-0.05
2022-12-22T20:00:31.468Z,-0.02
2022-12-22T20:03:02.815Z,-0.10
2022-12-22T20:05:34.039Z,-0.34
2022-12-22T20:08:04.100Z,-0.10
2022-12-22T20:10:35.905Z,-0.19
2022-12-22T20:13:08.497Z,-0.32
2022-12-22T20:15:40.703Z,-0.30
2022-12-22T20:18:17.465Z,-0.23
2022-12-22T20:20:57.165Z,-0.26
2022-12-22T20:23:29.553Z,-0.18
2022-12-22T20:26:02.728Z,-0.20
2022-12-22T20:28:33.922Z,-0.13
2022-12-22T20:31:05.751Z,-0.16
2022-12-22T20:33:37.445Z,-0.18
2022-12-22T20:36:18.045Z,-0.18
2022-12-22T20:38:49.040Z,-0.33
2022-12-22T20:41:19.314Z,-0.40
2022-12-22T20:43:49.988Z,-0.37
2022-12-22T20:46:24.130Z,-0.29
2022-12-22T20:48:57.959Z,-0.33
2022-12-22T20:51:30.550Z,-0.42
2022-12-22T20:54:00.741Z,-0.38
2022-12-22T20:56:33.387Z,-0.32
2022-12-22T20:59:12.846Z,-0.27
2022-12-22T21:01:43.047Z,-0.71
2022-12-22T21:04:15.074Z,-0.44
2022-12-22T21:06:48.232Z,-0.27
2022-12-22T21:09:18.603Z,-0.37
2022-12-22T21:11:48.840Z,-0.43
2022-12-22T21:14:19.143Z,-0.26
2022-12-22T21:16:49.935Z,-0.43
2022-12-22T21:19:21.439Z,-0.47
2022-12-22T21:21:51.244Z,-0.50
2022-12-22T21:24:21.074Z,-0.45
2022-12-22T21:26:54.295Z,-0.63
2022-12-22T21:29:26.225Z,-0.59
2022-12-22T21:31:56.031Z,-0.57
2022-12-22T21:34:27.322Z,-0.63
2022-12-22T21:37:02.192Z,-0.67
2022-12-22T21:39:37.048Z,-0.62
2022-12-22T21:42:07.763Z,-0.64
2022-12-22T21:44:37.610Z,-0.63
2022-12-22T21:47:07.877Z,-0.62
2022-12-22T21:49:39.155Z,-0.62
2022-12-22T21:52:09.177Z,-0.65
2022-12-22T21:54:39.008Z,-0.57
2022-12-22T21:57:14.905Z,-0.62
2022-12-22T21:59:48.007Z,-0.71
2022-12-22T22:02:18.740Z,-0.79
2022-12-22T22:04:55.138Z,-0.67
2022-12-22T22:07:25.275Z,-0.68
2022-12-22T22:09:54.968Z,-0.81
2022-12-22T22:12:35.138Z,-0.82
2022-12-22T22:15:06.072Z,-0.87
2022-12-22T22:17:36.372Z,-0.78
2022-12-22T22:20:13.280Z,-0.77
2022-12-22T22:22:44.158Z,-0.74
2022-12-22T22:25:16.162Z,-0.75
2022-12-22T22:27:48.158Z,-0.80
2022-12-22T22:30:20.129Z,-0.93
2022-12-22T22:32:50.615Z,-0.83
2022-12-22T22:35:22.640Z,-0.84
2022-12-22T22:37:52.610Z,-0.80
2022-12-22T22:40:24.523Z,-1.06
2022-12-22T22:42:54.180Z,-0.79
2022-12-22T22:45:24.517Z,-0.96
2022-12-22T22:47:54.893Z,-0.84
2022-12-22T22:50:25.964Z,-0.86
2022-12-22T22:52:55.760Z,-0.97
2022-12-22T22:55:25.563Z,-1.11
2022-12-22T22:57:55.312Z,-1.08
2022-12-22T23:00:25.141Z,-1.04
2022-12-22T23:02:55.024Z,-1.19
2022-12-22T23:05:26.218Z,-1.15
2022-12-22T23:07:56.153Z,-1.02
2022-12-22T23:10:26.038Z,-0.94
2022-12-22T23:12:56.556Z,-0.94
2022-12-22T23:15:26.756Z,-1.06
2022-12-22T23:17:56.647Z,-1.16
2022-12-22T23:20:28.539Z,-1.07
2022-12-22T23:22:58.310Z,-1.09
2022-12-22T23:25:28.157Z,-1.17
2022-12-22T23:27:57.850Z,-1.13
2022-12-22T23:30:27.631Z,-1.12
2022-12-22T23:32:57.415Z,-1.20
2022-12-22T23:35:28.613Z,-1.10
2022-12-22T23:37:58.481Z,-1.25
2022-12-22T23:43:18.352Z,-1.26
2022-12-22T23:45:48.229Z,-1.20
2022-12-22T23:48:18.068Z,-1.18
2022-12-22T23:50:49.831Z,-1.20
2022-12-22T23:53:19.663Z,-1.20
2022-12-22T23:55:50.216Z,-1.25
2022-12-22T23:58:20.221Z,-1.32
